MMMD/MID METAR and TAF weather

Enter ICAO airport designator
Station Type Date Time Source
MMMD METAR 2022/01/19 19:49 UTC NOAA

MMMD 191949Z 13009KT 7SM BKN020 30/15 A2997 RMK 8/100 HZY SC


Station Type Date Time Source
MMMD Decoded METAR 2022/01/19 19:49 UTC NOAA

Merida / lic Manuel Crecencio, Mexico (MMMD) 20-56N 089-39W 11M
Jan 19, 2022 - 02:49 PM EST / 2022.01.19 1949 UTC
Wind: from the SE (130 degrees) at 10 MPH (9 KT):0
Visibility: 7 mile(s):0
Sky conditions: mostly cloudy
Temperature: 86 F (30 C)
Dew Point: 59 F (15 C)
Relative Humidity: 40%
Pressure (altimeter): 29.97 in. Hg (1014 hPa)
ob: MMMD 191949Z 13009KT 7SM BKN020 30/15 A2997 RMK 8/100 HZY SC
cycle: 20

Station Type Date Time Source
MMMD TAF 2022/01/19 18:58 UTC NOAA

TAF MMMD 191751Z 1918/2024 10010KT P6SM SKC TX29/1921Z TN15/2013Z
BECMG 2000/2001 10012KT SCT020
TEMPO 2011/2015 6SM HZ BKN008
FM201700 08008KT P6SM SCT020

Example: see airport list